Terminal Aerodrome Forecast
Issued by NWS

Home | Current Version | Previous Version | Text Only | Print | Product List | Glossary On
Versions: 1 2 3 4 5 6 7 8 9 10 11 12 13 14 15 16 17 18 19 20 21 22 23 24
000
FTUS46 KSEW 202339
TAFPWT
TAF
KPWT 202339Z 2100/2124 05009KT P6SM SKC
     FM210300 13008KT P6SM SCT150
     FM210900 17005KT P6SM SCT050 BKN150
     FM211500 18007KT P6SM SCT040 BKN070
     FM212200 19014KT P6SM BKN050=

USA.gov is the U.S. government's official web portal to all federal, state and local government web resources and services.